Time;durP1;ratioP1;P1;durP2;ratioP2;P2;SDS_P1;SDS_P2;PMS_P1;PMS_P2;Temp;Humidity;BMP_temperature;BMP_pressure;BME280_temperature;BME280_humidity;BME280_pressure;Samples;Min_cycle;Max_cycle;Signal;HPM_P1;HPM_P2
2021/06/24 00:02:14;;;;;;;;;;;28.20;61.10;;;;;;5131356;27;20279;-54
2021/06/24 00:04:41;;;;;;;;;;;28.20;61.10;;;;;;5132287;27;19923;-53
2021/06/24 00:07:08;;;;;;;;;;;28.20;61.10;;;;;;5132037;27;19924;-54
2021/06/24 00:09:35;;;;;;;;;;;28.20;61.20;;;;;;5132228;27;19963;-56
2021/06/24 00:12:02;;;;;;;;;;;28.20;61.20;;;;;;5133314;27;19930;-53
2021/06/24 00:14:29;;;;;;;;;;;28.20;61.20;;;;;;5130564;27;19976;-54
2021/06/24 00:16:56;;;;;;;;;;;28.20;61.20;;;;;;5130742;27;20367;-55
2021/06/24 00:19:23;;;;;;;;;;;28.20;61.10;;;;;;5130863;27;19923;-56
2021/06/24 00:21:50;;;;;;;;;;;28.20;61.20;;;;;;5132973;27;19970;-53
2021/06/24 00:24:17;;;;;;;;;;;28.20;61.10;;;;;;5133424;27;19977;-54
2021/06/24 00:26:44;;;;;;;;;;;28.20;61.10;;;;;;5130348;27;19971;-56
2021/06/24 00:29:11;;;;;;;;;;;28.20;61.10;;;;;;5119486;27;19930;-53
2021/06/24 00:31:38;;;;;;;;;;;28.20;61.10;;;;;;5129916;27;19923;-54
2021/06/24 00:34:05;;;;;;;;;;;28.20;61.10;;;;;;5114583;27;19950;-55
2021/06/24 00:36:32;;;;;;;;;;;28.20;61.10;;;;;;5133029;27;20004;-51
2021/06/24 00:39:00;;;;;;;;;;;28.20;61.10;;;;;;5131967;27;20007;-54
2021/06/24 00:41:28;;;;;;;;;;;28.20;61.10;;;;;;5131839;27;19931;-50
2021/06/24 00:43:55;;;;;;;;;;;28.20;61.10;;;;;;5132184;27;19976;-54
2021/06/24 00:46:22;;;;;;;;;;;28.20;61.10;;;;;;5132050;27;20018;-54
2021/06/24 00:48:54;;;;;;;;;;;28.20;61.10;;;;;;5130354;27;19927;-56
2021/06/24 00:51:22;;;;;;;;;;;28.20;61.10;;;;;;5098658;28;19985;-52
2021/06/24 00:53:48;;;;;;;;;;;28.20;61.10;;;;;;5130790;27;19927;-52
2021/06/24 00:56:24;;;;;;;;;;;28.20;61.10;;;;;;5132424;27;19947;-53
2021/06/24 00:58:51;;;;;;;;;;;28.20;61.10;;;;;;5131026;27;19929;-54
2021/06/24 01:01:18;;;;;;;;;;;28.20;61.10;;;;;;5131334;27;20002;-54
2021/06/24 01:03:45;;;;;;;;;;;28.20;61.00;;;;;;5130237;27;19930;-53
2021/06/24 01:06:12;;;;;;;;;;;28.20;61.10;;;;;;5130188;27;20268;-54
2021/06/24 01:08:39;;;;;;;;;;;28.20;61.10;;;;;;5129360;27;19923;-58
2021/06/24 01:11:05;;;;;;;;;;;28.20;61.10;;;;;;5129757;27;20010;-55
2021/06/24 01:13:33;;;;;;;;;;;28.20;61.00;;;;;;5129922;27;20359;-53
2021/06/24 01:16:00;;;;;;;;;;;28.20;61.00;;;;;;5129659;28;20413;-54
2021/06/24 01:18:27;;;;;;;;;;;28.20;61.00;;;;;;5132578;28;19927;-52
2021/06/24 01:20:54;;;;;;;;;;;28.20;61.10;;;;;;5115535;28;19974;-55
2021/06/24 01:23:22;;;;;;;;;;;28.20;61.80;;;;;;5133416;28;20010;-52
2021/06/24 01:25:50;;;;;;;;;;;28.20;61.00;;;;;;5129649;28;19947;-53
2021/06/24 01:28:17;;;;;;;;;;;28.20;61.00;;;;;;5118096;28;19971;-52
2021/06/24 01:30:44;;;;;;;;;;;28.20;61.00;;;;;;5132562;28;20344;-53
2021/06/24 01:33:12;;;;;;;;;;;28.20;61.00;;;;;;5130720;28;20013;-53
2021/06/24 01:35:39;;;;;;;;;;;28.20;61.00;;;;;;5129893;28;20020;-57
2021/06/24 01:38:07;;;;;;;;;;;28.20;61.00;;;;;;5132824;28;19931;-53
2021/06/24 01:40:35;;;;;;;;;;;28.20;61.00;;;;;;5132027;28;20010;-50
2021/06/24 01:43:02;;;;;;;;;;;28.20;61.00;;;;;;5133499;27;19924;-55
2021/06/24 01:45:30;;;;;;;;;;;28.20;61.00;;;;;;5118579;27;19973;-53
2021/06/24 01:47:57;;;;;;;;;;;28.20;61.00;;;;;;5134717;27;19992;-51
2021/06/24 01:50:24;;;;;;;;;;;28.20;61.00;;;;;;5134857;27;20454;-54
2021/06/24 01:52:51;;;;;;;;;;;28.20;61.00;;;;;;5134398;27;19923;-54
2021/06/24 01:55:31;;;;;;;;;;;28.20;61.00;;;;;;5134959;27;19989;-55
2021/06/24 01:58:01;;;;;;;;;;;28.20;61.00;;;;;;5134847;27;19989;-54
2021/06/24 02:00:28;;;;;;;;;;;28.20;61.00;;;;;;5137555;27;20003;-51
2021/06/24 02:02:57;;;;;;;;;;;28.20;61.00;;;;;;5135862;27;19923;-55
2021/06/24 02:05:24;;;;;;;;;;;28.20;61.00;;;;;;5134345;27;19923;-55
2021/06/24 02:07:51;;;;;;;;;;;28.20;61.00;;;;;;5134523;27;19966;-57
2021/06/24 02:10:18;;;;;;;;;;;28.20;61.00;;;;;;5133056;27;20324;-56
2021/06/24 02:12:44;;;;;;;;;;;28.20;61.00;;;;;;5134811;27;19981;-56
2021/06/24 02:15:13;;;;;;;;;;;28.20;61.00;;;;;;5126425;27;20375;-57
2021/06/24 02:17:40;;;;;;;;;;;28.20;61.00;;;;;;5126643;27;19998;-55
2021/06/24 02:20:08;;;;;;;;;;;28.20;61.00;;;;;;5135675;27;19970;-54
2021/06/24 02:22:36;;;;;;;;;;;28.20;61.00;;;;;;5136546;27;19927;-56
2021/06/24 02:25:04;;;;;;;;;;;28.20;61.00;;;;;;5134095;27;19924;-53
2021/06/24 02:27:31;;;;;;;;;;;28.20;61.00;;;;;;5135363;27;19924;-56
2021/06/24 02:29:58;;;;;;;;;;;28.20;61.00;;;;;;5135276;27;20006;-57
2021/06/24 02:32:25;;;;;;;;;;;28.20;61.00;;;;;;5134198;27;19927;-53
2021/06/24 02:34:52;;;;;;;;;;;28.20;61.00;;;;;;5116461;27;19931;-57
2021/06/24 02:37:19;;;;;;;;;;;28.20;61.00;;;;;;5116453;27;19938;-55
2021/06/24 02:39:46;;;;;;;;;;;28.20;61.00;;;;;;5135571;27;20009;-55
2021/06/24 02:42:13;;;;;;;;;;;28.20;61.00;;;;;;5135747;27;19930;-57
2021/06/24 02:44:40;;;;;;;;;;;28.20;61.10;;;;;;5134894;27;20015;-55
2021/06/24 02:47:07;;;;;;;;;;;28.20;61.00;;;;;;5134334;27;20010;-55
2021/06/24 02:49:34;;;;;;;;;;;28.20;61.00;;;;;;5134227;27;20014;-54
2021/06/24 02:52:01;;;;;;;;;;;28.20;61.00;;;;;;5133762;27;20006;-56
2021/06/24 02:54:28;;;;;;;;;;;28.20;61.00;;;;;;5133245;27;19924;-54
2021/06/24 02:56:58;;;;;;;;;;;28.10;60.90;;;;;;5132500;27;19927;-54
2021/06/24 02:59:25;;;;;;;;;;;28.10;60.90;;;;;;5133573;27;19975;-54
2021/06/24 03:01:52;;;;;;;;;;;28.20;61.00;;;;;;5132182;27;19929;-55
2021/06/24 03:04:22;;;;;;;;;;;28.20;61.00;;;;;;5133495;27;19978;-57
2021/06/24 03:06:49;;;;;;;;;;;28.10;61.70;;;;;;5134660;27;19971;-55
2021/06/24 03:09:16;;;;;;;;;;;28.10;60.90;;;;;;5106998;28;19924;-56
2021/06/24 03:11:43;;;;;;;;;;;28.20;61.00;;;;;;5117714;27;19978;-57
2021/06/24 03:14:11;;;;;;;;;;;28.20;61.00;;;;;;5116109;27;20014;-54
2021/06/24 03:16:38;;;;;;;;;;;28.20;61.00;;;;;;5126566;27;20351;-54
2021/06/24 03:19:05;;;;;;;;;;;28.10;60.90;;;;;;5134363;27;20002;-58
2021/06/24 03:21:33;;;;;;;;;;;28.20;61.00;;;;;;5128964;27;19924;-51
2021/06/24 03:24:00;;;;;;;;;;;28.20;61.00;;;;;;5122252;27;20393;-55
2021/06/24 03:26:27;;;;;;;;;;;28.20;61.60;;;;;;5114663;27;20011;-56
2021/06/24 03:28:54;;;;;;;;;;;28.20;60.90;;;;;;5133943;27;20395;-54
2021/06/24 03:31:21;;;;;;;;;;;28.20;60.90;;;;;;5132715;27;20026;-52
2021/06/24 03:33:48;;;;;;;;;;;28.20;60.80;;;;;;5117777;27;20411;-57
2021/06/24 03:36:15;;;;;;;;;;;28.20;60.80;;;;;;5134136;27;19959;-50
2021/06/24 03:38:44;;;;;;;;;;;28.20;60.80;;;;;;5117661;27;19923;-49
2021/06/24 03:41:12;;;;;;;;;;;28.20;60.80;;;;;;5133736;27;20391;-53
2021/06/24 03:43:40;;;;;;;;;;;28.20;60.70;;;;;;5134486;27;20313;-56
2021/06/24 03:46:07;;;;;;;;;;;28.20;60.70;;;;;;5132193;27;20409;-54
2021/06/24 03:48:34;;;;;;;;;;;28.20;60.70;;;;;;5132965;27;19953;-55
2021/06/24 03:51:02;;;;;;;;;;;28.20;61.40;;;;;;5134890;27;19977;-55
2021/06/24 03:53:29;;;;;;;;;;;28.20;60.60;;;;;;5130982;27;20401;-50
2021/06/24 03:55:56;;;;;;;;;;;28.20;60.60;;;;;;5133913;27;20010;-54
2021/06/24 03:58:23;;;;;;;;;;;28.20;60.50;;;;;;5132272;27;20386;-54
2021/06/24 04:00:50;;;;;;;;;;;28.20;60.50;;;;;;5133891;27;19984;-51
2021/06/24 04:03:17;;;;;;;;;;;28.20;60.50;;;;;;5121741;27;20403;-53
2021/06/24 04:05:44;;;;;;;;;;;28.30;60.50;;;;;;5125933;27;20043;-54
2021/06/24 04:08:11;;;;;;;;;;;28.20;60.40;;;;;;5133682;27;20010;-55
2021/06/24 04:10:58;;;;;;;;;;;28.20;60.40;;;;;;5132195;27;20387;-55
2021/06/24 04:13:25;;;;;;;;;;;28.30;60.40;;;;;;5133278;27;19992;-53
2021/06/24 04:15:52;;;;;;;;;;;28.30;60.30;;;;;;5130932;27;19949;-54
2021/06/24 04:18:19;;;;;;;;;;;28.30;60.30;;;;;;5115115;27;20014;-53
2021/06/24 04:20:46;;;;;;;;;;;28.30;60.10;;;;;;5127409;27;19927;-54
2021/06/24 04:23:13;;;;;;;;;;;28.30;60.00;;;;;;5120408;27;19930;-51
2021/06/24 04:25:40;;;;;;;;;;;28.40;60.70;;;;;;5133389;27;19923;-56
2021/06/24 04:28:07;;;;;;;;;;;28.40;60.00;;;;;;5125778;27;19977;-55
2021/06/24 04:30:34;;;;;;;;;;;28.40;59.80;;;;;;5132975;27;19974;-56
2021/06/24 04:33:01;;;;;;;;;;;28.40;59.80;;;;;;5114586;27;20076;-53
2021/06/24 04:35:28;;;;;;;;;;;28.40;59.70;;;;;;5132081;27;20006;-55
2021/06/24 04:37:56;;;;;;;;;;;28.50;59.80;;;;;;5132823;27;19931;-56
2021/06/24 04:40:23;;;;;;;;;;;28.50;59.60;;;;;;5133365;27;20355;-54
2021/06/24 04:42:50;;;;;;;;;;;28.60;59.60;;;;;;5132103;27;19930;-54
2021/06/24 04:45:17;;;;;;;;;;;28.60;59.50;;;;;;5122198;27;19939;-52
2021/06/24 04:47:44;;;;;;;;;;;28.60;59.40;;;;;;5132183;27;20019;-51
2021/06/24 04:50:11;;;;;;;;;;;28.60;59.30;;;;;;5131057;27;19923;-53
2021/06/24 04:52:38;;;;;;;;;;;28.70;59.30;;;;;;5131132;27;20477;-52
2021/06/24 04:55:05;;;;;;;;;;;28.70;59.20;;;;;;5117309;27;20019;-54
2021/06/24 04:57:32;;;;;;;;;;;28.70;59.10;;;;;;5114194;27;19963;-52
2021/06/24 04:59:59;;;;;;;;;;;28.80;59.10;;;;;;5127713;27;19930;-53
2021/06/24 05:02:26;;;;;;;;;;;28.80;59.00;;;;;;5121047;27;20011;-53
2021/06/24 05:04:55;;;;;;;;;;;28.80;59.00;;;;;;5115639;27;20025;-56
2021/06/24 05:07:22;;;;;;;;;;;28.80;58.90;;;;;;5115621;27;19968;-53
2021/06/24 05:09:49;;;;;;;;;;;28.90;58.90;;;;;;5098541;28;20538;-52
2021/06/24 05:12:16;;;;;;;;;;;28.90;58.90;;;;;;5122917;27;19980;-52
2021/06/24 05:14:43;;;;;;;;;;;28.90;58.80;;;;;;5132565;27;19924;-56
2021/06/24 05:17:14;;;;;;;;;;;28.90;58.80;;;;;;5125527;28;20397;-56
2021/06/24 05:19:42;;;;;;;;;;;28.90;58.70;;;;;;5120202;28;19928;-55
2021/06/24 05:22:10;;;;;;;;;;;28.90;58.70;;;;;;5131999;28;19978;-57
2021/06/24 05:24:39;;;;;;;;;;;28.90;58.70;;;;;;5130600;28;19985;-56
2021/06/24 05:27:06;;;;;;;;;;;28.90;58.60;;;;;;5130543;28;19934;-56
2021/06/24 05:29:33;;;;;;;;;;;28.90;58.60;;;;;;5130591;28;19988;-55
2021/06/24 05:32:00;;;;;;;;;;;29.00;58.70;;;;;;5113340;28;19976;-54
2021/06/24 05:34:27;;;;;;;;;;;28.90;58.60;;;;;;5131849;28;20370;-54
2021/06/24 05:36:54;;;;;;;;;;;29.00;58.60;;;;;;5130976;28;19970;-57
2021/06/24 05:39:21;;;;;;;;;;;29.00;58.70;;;;;;5133337;28;20405;-54
2021/06/24 05:41:48;;;;;;;;;;;29.00;59.20;;;;;;5133341;28;19923;-54
2021/06/24 05:44:15;;;;;;;;;;;29.00;58.60;;;;;;5128323;28;19967;-56
2021/06/24 05:46:42;;;;;;;;;;;29.00;58.60;;;;;;5131897;28;19962;-55
2021/06/24 05:49:09;;;;;;;;;;;29.00;58.60;;;;;;5131477;28;19923;-51
2021/06/24 05:51:36;;;;;;;;;;;29.10;58.60;;;;;;5131096;28;19934;-50
2021/06/24 05:54:04;;;;;;;;;;;29.10;58.50;;;;;;5115469;28;19923;-55
2021/06/24 05:56:30;;;;;;;;;;;29.10;58.50;;;;;;5129436;28;19973;-52
2021/06/24 05:58:57;;;;;;;;;;;29.10;58.50;;;;;;5133197;28;19955;-55
2021/06/24 06:01:24;;;;;;;;;;;29.10;58.40;;;;;;5131965;28;20285;-56
2021/06/24 06:03:51;;;;;;;;;;;29.10;58.40;;;;;;5131648;28;19923;-55
2021/06/24 06:06:19;;;;;;;;;;;29.20;58.40;;;;;;5129582;28;20053;-53
2021/06/24 06:08:46;;;;;;;;;;;29.10;58.40;;;;;;5130458;28;20014;-56
2021/06/24 06:11:13;;;;;;;;;;;29.20;58.40;;;;;;5129493;28;20388;-55
2021/06/24 06:13:40;;;;;;;;;;;29.20;58.40;;;;;;5130125;28;20011;-54
2021/06/24 06:16:07;;;;;;;;;;;29.20;58.40;;;;;;5114599;28;19975;-52
2021/06/24 06:18:34;;;;;;;;;;;29.20;58.40;;;;;;5131772;28;19927;-54
2021/06/24 06:21:01;;;;;;;;;;;29.20;58.40;;;;;;5131268;28;19928;-52
2021/06/24 06:23:28;;;;;;;;;;;29.10;58.30;;;;;;5128557;28;19927;-55
2021/06/24 06:25:56;;;;;;;;;;;29.10;58.30;;;;;;5115823;28;19923;-53
2021/06/24 06:28:23;;;;;;;;;;;29.10;58.40;;;;;;5120145;28;19963;-54
2021/06/24 06:30:51;;;;;;;;;;;29.10;58.40;;;;;;5131234;27;20003;-48
2021/06/24 06:33:19;;;;;;;;;;;29.10;58.40;;;;;;5134787;27;19967;-52
2021/06/24 06:35:46;;;;;;;;;;;29.10;58.40;;;;;;5117575;27;19974;-54
2021/06/24 06:38:13;;;;;;;;;;;29.10;58.40;;;;;;5133976;27;20027;-56
2021/06/24 06:40:40;;;;;;;;;;;29.10;58.40;;;;;;5134287;27;19977;-55
2021/06/24 06:43:07;;;;;;;;;;;29.10;58.40;;;;;;5119250;27;19924;-51
2021/06/24 06:45:35;;;;;;;;;;;29.10;58.50;;;;;;5119140;27;20007;-53
2021/06/24 06:48:03;;;;;;;;;;;29.10;58.50;;;;;;5134926;27;19924;-52
2021/06/24 06:50:31;;;;;;;;;;;29.10;58.50;;;;;;5115440;27;20038;-50
2021/06/24 06:52:58;;;;;;;;;;;29.10;58.50;;;;;;5122054;27;19978;-53
2021/06/24 06:55:28;;;;;;;;;;;29.10;58.40;;;;;;5131224;27;20010;-54
2021/06/24 06:57:57;;;;;;;;;;;29.10;58.50;;;;;;5132385;27;19934;-52
2021/06/24 07:00:25;;;;;;;;;;;29.10;58.40;;;;;;5123294;27;19930;-51
2021/06/24 07:02:52;;;;;;;;;;;29.10;58.50;;;;;;5128505;27;19923;-52
2021/06/24 07:05:19;;;;;;;;;;;29.10;58.50;;;;;;5133447;27;19924;-56
2021/06/24 07:07:47;;;;;;;;;;;29.10;58.50;;;;;;5124906;27;19928;-54
2021/06/24 07:10:14;;;;;;;;;;;29.10;58.40;;;;;;5124917;27;20014;-52
2021/06/24 07:12:42;;;;;;;;;;;29.10;58.50;;;;;;5134476;27;20371;-51
2021/06/24 07:15:09;;;;;;;;;;;29.10;58.40;;;;;;5133498;27;19994;-54
2021/06/24 07:17:36;;;;;;;;;;;29.20;58.50;;;;;;5132505;27;20428;-55
2021/06/24 07:20:04;;;;;;;;;;;29.20;58.40;;;;;;5132071;27;20003;-56
2021/06/24 07:22:31;;;;;;;;;;;29.20;58.40;;;;;;5132160;27;19923;-56
2021/06/24 07:24:58;;;;;;;;;;;29.20;58.30;;;;;;5132131;27;20388;-56
2021/06/24 07:27:25;;;;;;;;;;;29.20;58.30;;;;;;5118504;27;19924;-51
2021/06/24 07:29:52;;;;;;;;;;;29.20;58.30;;;;;;5132563;27;19959;-58
2021/06/24 07:32:19;;;;;;;;;;;29.30;58.30;;;;;;5132572;27;19931;-56
2021/06/24 07:34:46;;;;;;;;;;;29.20;58.20;;;;;;5134040;27;19928;-56
2021/06/24 07:37:13;;;;;;;;;;;29.20;58.20;;;;;;5136965;27;19923;-57
2021/06/24 07:39:40;;;;;;;;;;;29.20;58.20;;;;;;5099101;28;19924;-55
2021/06/24 07:42:07;;;;;;;;;;;29.20;58.20;;;;;;5131132;27;20002;-57
2021/06/24 07:44:34;;;;;;;;;;;29.20;58.20;;;;;;5125924;27;19981;-54
2021/06/24 07:47:01;;;;;;;;;;;29.20;58.20;;;;;;5131324;27;19973;-57
2021/06/24 07:49:28;;;;;;;;;;;29.20;58.20;;;;;;5132462;27;19935;-57
2021/06/24 07:51:55;;;;;;;;;;;29.30;58.20;;;;;;5135285;27;19923;-55
2021/06/24 07:54:22;;;;;;;;;;;29.30;58.20;;;;;;5116517;27;19924;-55
2021/06/24 07:56:49;;;;;;;;;;;29.30;58.20;;;;;;5131490;27;19991;-56
2021/06/24 07:59:16;;;;;;;;;;;29.30;58.20;;;;;;5130890;27;19927;-56
2021/06/24 08:01:43;;;;;;;;;;;29.30;58.20;;;;;;5132923;27;19969;-56
2021/06/24 08:04:10;;;;;;;;;;;29.30;58.20;;;;;;5132219;27;19931;-57
2021/06/24 08:06:40;;;;;;;;;;;29.30;58.10;;;;;;5132348;27;20010;-55
2021/06/24 08:09:10;;;;;;;;;;;29.30;58.10;;;;;;5133436;27;19974;-56
2021/06/24 08:11:37;;;;;;;;;;;29.30;58.20;;;;;;5126346;27;19928;-55
2021/06/24 08:14:04;;;;;;;;;;;29.30;58.20;;;;;;5120572;27;19970;-52
2021/06/24 08:16:31;;;;;;;;;;;29.30;58.10;;;;;;5130924;27;19931;-51
2021/06/24 08:18:58;;;;;;;;;;;29.30;58.10;;;;;;5130052;27;20430;-51
2021/06/24 08:21:25;;;;;;;;;;;29.30;58.00;;;;;;5115928;27;19974;-56
2021/06/24 08:23:52;;;;;;;;;;;29.30;58.00;;;;;;5132169;27;19927;-56
2021/06/24 08:26:19;;;;;;;;;;;29.40;58.00;;;;;;5132926;27;20002;-53
2021/06/24 08:28:47;;;;;;;;;;;29.40;57.90;;;;;;5132804;27;19975;-55
2021/06/24 08:31:14;;;;;;;;;;;29.50;57.80;;;;;;5132420;27;20115;-55
2021/06/24 08:33:41;;;;;;;;;;;29.50;57.70;;;;;;5132411;27;19970;-56
2021/06/24 08:36:08;;;;;;;;;;;29.50;57.60;;;;;;5134629;27;19931;-54
2021/06/24 08:38:35;;;;;;;;;;;29.50;57.60;;;;;;5133324;27;19962;-56
2021/06/24 08:41:03;;;;;;;;;;;29.50;57.70;;;;;;5115408;27;19998;-53
2021/06/24 08:43:30;;;;;;;;;;;29.50;57.60;;;;;;5131550;27;19927;-50
2021/06/24 08:46:01;;;;;;;;;;;29.50;57.70;;;;;;5130028;27;19927;-55
2021/06/24 08:48:32;;;;;;;;;;;29.50;57.70;;;;;;5131168;27;19930;-54
2021/06/24 08:50:59;;;;;;;;;;;29.50;57.70;;;;;;5131066;27;20358;-55
2021/06/24 08:53:26;;;;;;;;;;;29.50;57.80;;;;;;5132864;27;19975;-55
2021/06/24 08:55:55;;;;;;;;;;;29.50;57.70;;;;;;5131499;27;20087;-56
2021/06/24 08:58:24;;;;;;;;;;;29.50;57.70;;;;;;5133548;27;20414;-56
2021/06/24 09:00:51;;;;;;;;;;;29.50;57.70;;;;;;5122882;27;20307;-57
2021/06/24 09:03:21;;;;;;;;;;;29.50;57.70;;;;;;5115596;27;20394;-55
2021/06/24 09:05:51;;;;;;;;;;;29.50;57.70;;;;;;5115540;27;19979;-57
2021/06/24 09:08:25;;;;;;;;;;;29.50;57.60;;;;;;5115490;28;19976;-58
2021/06/24 09:11:10;;;;;;;;;;;29.60;57.60;;;;;;5123229;27;20264;-57
2021/06/24 09:13:37;;;;;;;;;;;29.60;57.60;;;;;;5129550;27;20010;-57
2021/06/24 09:16:06;;;;;;;;;;;29.60;57.50;;;;;;5132311;27;19930;-55
2021/06/24 09:18:33;;;;;;;;;;;29.60;57.40;;;;;;5131258;28;20271;-57
2021/06/24 09:21:16;;;;;;;;;;;29.60;57.40;;;;;;5132370;28;19927;-55
2021/06/24 09:23:44;;;;;;;;;;;29.70;57.30;;;;;;5122866;28;20019;-55
2021/06/24 09:26:13;;;;;;;;;;;29.70;57.30;;;;;;5120297;28;19927;-56
2021/06/24 09:28:43;;;;;;;;;;;29.60;57.20;;;;;;5130693;28;20379;-56
2021/06/24 09:31:30;;;;;;;;;;;29.70;57.20;;;;;;5129854;28;20026;-57
2021/06/24 09:34:05;;;;;;;;;;;29.70;57.20;;;;;;5132267;28;19962;-55
2021/06/24 09:36:33;;;;;;;;;;;29.80;57.20;;;;;;5130466;28;20353;-54
2021/06/24 09:39:01;;;;;;;;;;;29.70;57.10;;;;;;5129825;28;19923;-57
2021/06/24 09:41:28;;;;;;;;;;;29.70;57.10;;;;;;5129892;28;19923;-56
2021/06/24 09:43:55;;;;;;;;;;;29.80;57.20;;;;;;5131246;28;19924;-58
2021/06/24 09:46:23;;;;;;;;;;;29.70;57.10;;;;;;5116239;28;19923;-55
2021/06/24 09:48:53;;;;;;;;;;;29.70;57.10;;;;;;5130987;28;19923;-57
2021/06/24 09:51:24;;;;;;;;;;;29.70;57.20;;;;;;5130752;28;19974;-55
2021/06/24 09:53:53;;;;;;;;;;;29.70;57.30;;;;;;5128037;28;19930;-56
2021/06/24 09:56:20;;;;;;;;;;;29.60;57.30;;;;;;5115231;28;19923;-54
2021/06/24 09:58:47;;;;;;;;;;;29.60;57.30;;;;;;5131847;28;19932;-56
2021/06/24 10:01:29;;;;;;;;;;;29.70;57.40;;;;;;5131934;28;20430;-54
2021/06/24 10:03:58;;;;;;;;;;;29.70;57.30;;;;;;5115724;28;19923;-54
2021/06/24 10:06:25;;;;;;;;;;;29.70;57.20;;;;;;5133996;27;20299;-58
2021/06/24 10:08:52;;;;;;;;;;;29.70;57.10;;;;;;5134419;27;19973;-53
2021/06/24 10:11:23;;;;;;;;;;;29.70;57.10;;;;;;5136924;27;20018;-58
2021/06/24 10:13:50;;;;;;;;;;;29.70;57.20;;;;;;5116773;28;20011;-56
2021/06/24 10:16:18;;;;;;;;;;;29.70;57.20;;;;;;5118306;27;19984;-56
2021/06/24 10:18:46;;;;;;;;;;;29.70;57.20;;;;;;5119685;27;19931;-58
2021/06/24 10:21:14;;;;;;;;;;;29.70;57.10;;;;;;5135346;27;19999;-56
2021/06/24 10:23:46;;;;;;;;;;;29.70;57.00;;;;;;5135531;27;20533;-56
2021/06/24 10:26:14;;;;;;;;;;;29.70;56.90;;;;;;5129507;27;19969;-56
2021/06/24 10:28:41;;;;;;;;;;;29.90;56.90;;;;;;5133621;27;20017;-57
2021/06/24 10:31:28;;;;;;;;;;;29.80;56.70;;;;;;5132620;27;20010;-56
2021/06/24 10:33:55;;;;;;;;;;;29.90;56.70;;;;;;5118396;27;19973;-52
2021/06/24 10:36:22;;;;;;;;;;;29.90;56.60;;;;;;5118723;27;19959;-53
2021/06/24 10:38:53;;;;;;;;;;;29.90;56.60;;;;;;5118563;27;19967;-55
2021/06/24 10:41:20;;;;;;;;;;;29.90;56.50;;;;;;5130429;27;20379;-56
2021/06/24 10:43:48;;;;;;;;;;;29.90;56.50;;;;;;5122970;27;20351;-55
2021/06/24 10:46:20;;;;;;;;;;;29.90;56.40;;;;;;5133969;27;20068;-53
2021/06/24 10:48:48;;;;;;;;;;;30.00;56.40;;;;;;5133717;27;19924;-55
2021/06/24 10:51:16;;;;;;;;;;;29.90;56.30;;;;;;5135004;27;20365;-56
2021/06/24 10:53:47;;;;;;;;;;;29.90;56.20;;;;;;5133595;27;20020;-51
2021/06/24 10:56:41;;;;;;;;;;;30.00;56.20;;;;;;5132499;27;19966;-52
2021/06/24 10:59:25;;;;;;;;;;;29.90;56.20;;;;;;5129451;27;19973;-53
2021/06/24 11:01:52;;;;;;;;;;;29.90;56.20;;;;;;5132215;27;19923;-56
2021/06/24 11:04:27;;;;;;;;;;;29.90;56.30;;;;;;5134063;27;20010;-52
2021/06/24 11:06:55;;;;;;;;;;;29.90;56.30;;;;;;5132230;27;19923;-56
2021/06/24 11:09:22;;;;;;;;;;;29.90;56.30;;;;;;5133829;27;20374;-55
2021/06/24 11:11:49;;;;;;;;;;;29.90;56.30;;;;;;5134769;27;20006;-54
2021/06/24 11:14:36;;;;;;;;;;;29.90;56.20;;;;;;5131798;27;19924;-54
2021/06/24 11:17:22;;;;;;;;;;;29.90;56.20;;;;;;5134745;27;19930;-54
2021/06/24 11:20:08;;;;;;;;;;;29.90;56.30;;;;;;5131855;27;20295;-55
2021/06/24 11:22:49;;;;;;;;;;;29.90;56.30;;;;;;5117503;27;19976;-55
2021/06/24 11:25:17;;;;;;;;;;;29.90;56.30;;;;;;5133287;27;19923;-52
2021/06/24 11:27:44;;;;;;;;;;;29.90;56.30;;;;;;5130239;27;19923;-54
2021/06/24 11:30:12;;;;;;;;;;;29.80;56.30;;;;;;5132565;27;19930;-53
2021/06/24 11:32:43;;;;;;;;;;;29.80;56.40;;;;;;5135246;27;19924;-53
2021/06/24 11:35:32;;;;;;;;;;;29.90;56.50;;;;;;5121563;27;19973;-54
2021/06/24 11:38:00;;;;;;;;;;;29.80;56.40;;;;;;5132099;27;20006;-53
2021/06/24 11:40:28;;;;;;;;;;;29.90;56.40;;;;;;5135207;27;20373;-56
2021/06/24 11:42:55;;;;;;;;;;;29.90;56.40;;;;;;5131193;27;19954;-55
2021/06/24 11:45:24;;;;;;;;;;;29.90;56.40;;;;;;5119071;27;19924;-54
2021/06/24 11:47:57;;;;;;;;;;;29.90;56.50;;;;;;5128588;27;19923;-56
2021/06/24 12:04:15;;;;;;;;;;;29.70;56.70;;;;;;5134010;27;19931;-52
2021/06/24 12:06:57;;;;;;;;;;;29.70;56.70;;;;;;5133218;27;20399;-51
2021/06/24 12:09:26;;;;;;;;;;;29.70;56.70;;;;;;5134565;27;19971;-57
2021/06/24 12:11:55;;;;;;;;;;;29.70;56.70;;;;;;5134453;27;19969;-54
2021/06/24 12:14:29;;;;;;;;;;;29.70;56.80;;;;;;5132159;27;19924;-53
2021/06/24 12:17:05;;;;;;;;;;;29.70;56.80;;;;;;5132213;27;19923;-56
2021/06/24 12:19:41;;;;;;;;;;;29.70;56.80;;;;;;5132560;27;19932;-56
2021/06/24 12:22:08;;;;;;;;;;;29.70;56.80;;;;;;5132663;27;19967;-55
2021/06/24 12:24:35;;;;;;;;;;;29.70;56.80;;;;;;5133748;27;19968;-57
2021/06/24 12:27:21;;;;;;;;;;;29.70;56.80;;;;;;5129710;27;19923;-56
2021/06/24 12:29:49;;;;;;;;;;;29.70;56.80;;;;;;5114814;27;19924;-57
2021/06/24 12:32:16;;;;;;;;;;;29.70;56.80;;;;;;5131882;27;19924;-56
2021/06/24 12:34:44;;;;;;;;;;;29.70;56.80;;;;;;5132406;27;19923;-53
2021/06/24 12:37:26;;;;;;;;;;;29.70;56.80;;;;;;5132716;27;20387;-54
2021/06/24 12:39:53;;;;;;;;;;;29.70;56.70;;;;;;5116002;27;19923;-53
2021/06/24 12:42:20;;;;;;;;;;;29.70;56.80;;;;;;5130177;27;19930;-53
2021/06/24 12:44:47;;;;;;;;;;;29.70;56.90;;;;;;5124200;27;19949;-56
2021/06/24 12:47:37;;;;;;;;;;;29.70;56.90;;;;;;5082291;28;19974;-55
2021/06/24 12:50:18;;;;;;;;;;;29.70;56.80;;;;;;5132714;27;19927;-57
2021/06/24 12:53:04;;;;;;;;;;;29.70;56.80;;;;;;5132005;27;20011;-54
2021/06/24 12:55:40;;;;;;;;;;;29.70;56.90;;;;;;5132773;27;20409;-56
2021/06/24 12:58:11;;;;;;;;;;;29.70;56.90;;;;;;5131023;27;20340;-51
2021/06/24 13:00:39;;;;;;;;;;;29.70;57.00;;;;;;5132904;27;20329;-51
2021/06/24 13:03:07;;;;;;;;;;;29.60;57.00;;;;;;5131640;27;20363;-56
2021/06/24 13:05:34;;;;;;;;;;;29.70;57.00;;;;;;5133013;27;19969;-55
2021/06/24 13:08:09;;;;;;;;;;;29.70;57.10;;;;;;5131531;27;20345;-57
2021/06/24 13:10:43;;;;;;;;;;;29.60;57.00;;;;;;5132796;27;19969;-57
2021/06/24 13:13:25;;;;;;;;;;;29.60;57.10;;;;;;5130783;27;19930;-56
2021/06/24 13:15:52;;;;;;;;;;;29.60;57.10;;;;;;5131303;27;20019;-53
2021/06/24 13:18:19;;;;;;;;;;;29.60;57.10;;;;;;5115497;27;19928;-53
2021/06/24 13:20:56;;;;;;;;;;;29.60;57.20;;;;;;5131237;28;19972;-54
2021/06/24 13:23:32;;;;;;;;;;;29.60;57.20;;;;;;5130461;28;19923;-54
2021/06/24 13:26:31;;;;;;;;;;;29.60;57.20;;;;;;5131029;28;19923;-57
2021/06/24 13:28:58;;;;;;;;;;;29.60;57.20;;;;;;5030200;28;20027;-54
2021/06/24 13:31:29;;;;;;;;;;;29.60;57.30;;;;;;5012894;28;19975;-54
2021/06/24 13:34:00;;;;;;;;;;;29.50;57.30;;;;;;5029715;28;19932;-56
2021/06/24 13:36:28;;;;;;;;;;;29.50;57.20;;;;;;5012806;28;19972;-55
2021/06/24 13:38:57;;;;;;;;;;;29.50;57.30;;;;;;5013001;28;20421;-55
2021/06/24 13:41:26;;;;;;;;;;;29.50;57.30;;;;;;5017892;28;20501;-55
2021/06/24 13:44:05;;;;;;;;;;;29.50;57.30;;;;;;5031969;28;20012;-56
2021/06/24 13:46:32;;;;;;;;;;;29.50;57.30;;;;;;5032901;28;19929;-56
2021/06/24 13:48:59;;;;;;;;;;;29.50;57.30;;;;;;5033044;28;19931;-56
2021/06/24 13:51:26;;;;;;;;;;;29.50;57.30;;;;;;5033968;28;19983;-54
2021/06/24 13:54:00;;;;;;;;;;;29.50;57.30;;;;;;5032320;28;20020;-52
2021/06/24 13:56:27;;;;;;;;;;;29.60;57.30;;;;;;5032704;28;19976;-55
2021/06/24 13:58:54;;;;;;;;;;;29.60;57.30;;;;;;5032681;28;19975;-55
2021/06/24 14:01:22;;;;;;;;;;;29.60;57.30;;;;;;5032747;28;20000;-53
2021/06/24 14:03:50;;;;;;;;;;;29.60;57.20;;;;;;5050733;27;20006;-55
2021/06/24 14:06:17;;;;;;;;;;;29.60;57.10;;;;;;5134468;27;19953;-57
2021/06/24 14:08:45;;;;;;;;;;;29.60;57.10;;;;;;5134700;27;19972;-56
2021/06/24 14:11:15;;;;;;;;;;;29.60;57.00;;;;;;5126566;27;20337;-53
2021/06/24 14:13:44;;;;;;;;;;;29.60;57.00;;;;;;5117255;27;19924;-54
2021/06/24 14:16:13;;;;;;;;;;;29.60;57.00;;;;;;5128484;27;20332;-56
2021/06/24 14:18:42;;;;;;;;;;;29.60;57.00;;;;;;5118856;27;20015;-56
2021/06/24 14:21:11;;;;;;;;;;;29.60;57.00;;;;;;5121635;27;19923;-53
2021/06/24 14:23:41;;;;;;;;;;;29.70;56.90;;;;;;5135546;27;19927;-55
2021/06/24 14:26:08;;;;;;;;;;;29.70;56.90;;;;;;5133915;27;19927;-55
2021/06/24 14:28:35;;;;;;;;;;;29.70;56.80;;;;;;5123941;27;20002;-53
2021/06/24 14:31:02;;;;;;;;;;;29.70;56.70;;;;;;5136542;27;19972;-55
2021/06/24 14:33:30;;;;;;;;;;;29.70;56.70;;;;;;5134011;27;19998;-54
2021/06/24 14:35:57;;;;;;;;;;;29.70;56.70;;;;;;5117667;27;20343;-57
2021/06/24 14:38:24;;;;;;;;;;;29.70;56.70;;;;;;5117030;27;20002;-54
2021/06/24 14:40:51;;;;;;;;;;;29.80;56.70;;;;;;5117921;27;19924;-56